sensor_id;sensor_type;location;lat;lon;timestamp;P1;durP1;ratioP1;P2;durP2;ratioP2
42742;SDS011;28397;44.552;-0.848;2023-07-09T00:01:51;7.18;;;2.80;;
42742;SDS011;28397;44.552;-0.848;2023-07-09T00:04:17;7.25;;;2.85;;
42742;SDS011;28397;44.552;-0.848;2023-07-09T00:06:43;9.15;;;3.05;;
42742;SDS011;28397;44.552;-0.848;2023-07-09T00:09:17;7.13;;;2.90;;
42742;SDS011;28397;44.552;-0.848;2023-07-09T00:11:44;10.95;;;3.10;;
42742;SDS011;28397;44.552;-0.848;2023-07-09T00:14:11;9.45;;;3.10;;
42742;SDS011;28397;44.552;-0.848;2023-07-09T00:16:38;9.07;;;3.33;;
42742;SDS011;28397;44.552;-0.848;2023-07-09T00:19:10;10.00;;;3.60;;
42742;SDS011;28397;44.552;-0.848;2023-07-09T00:21:39;10.38;;;3.30;;
42742;SDS011;28397;44.552;-0.848;2023-07-09T00:24:05;12.07;;;3.70;;
42742;SDS011;28397;44.552;-0.848;2023-07-09T00:26:32;9.32;;;3.28;;
42742;SDS011;28397;44.552;-0.848;2023-07-09T00:28:58;10.80;;;3.63;;
42742;SDS011;28397;44.552;-0.848;2023-07-09T00:31:25;10.00;;;3.45;;
42742;SDS011;28397;44.552;-0.848;2023-07-09T00:33:51;9.98;;;3.85;;
42742;SDS011;28397;44.552;-0.848;2023-07-09T00:36:27;11.43;;;4.30;;
42742;SDS011;28397;44.552;-0.848;2023-07-09T00:38:56;10.30;;;3.60;;
42742;SDS011;28397;44.552;-0.848;2023-07-09T00:41:24;10.43;;;3.47;;
42742;SDS011;28397;44.552;-0.848;2023-07-09T00:43:51;10.05;;;4.20;;
42742;SDS011;28397;44.552;-0.848;2023-07-09T00:48:50;9.02;;;3.83;;
42742;SDS011;28397;44.552;-0.848;2023-07-09T00:51:25;10.35;;;3.80;;
42742;SDS011;28397;44.552;-0.848;2023-07-09T00:53:54;11.32;;;3.72;;
42742;SDS011;28397;44.552;-0.848;2023-07-09T00:56:27;8.20;;;3.20;;
42742;SDS011;28397;44.552;-0.848;2023-07-09T01:01:30;10.07;;;3.67;;
42742;SDS011;28397;44.552;-0.848;2023-07-09T01:03:57;12.95;;;4.30;;
42742;SDS011;28397;44.552;-0.848;2023-07-09T01:06:31;10.85;;;3.97;;
42742;SDS011;28397;44.552;-0.848;2023-07-09T01:09:04;10.10;;;3.50;;
42742;SDS011;28397;44.552;-0.848;2023-07-09T01:11:31;11.23;;;4.22;;
42742;SDS011;28397;44.552;-0.848;2023-07-09T01:13:57;9.85;;;3.83;;
42742;SDS011;28397;44.552;-0.848;2023-07-09T01:16:43;9.80;;;3.95;;
42742;SDS011;28397;44.552;-0.848;2023-07-09T01:19:13;12.23;;;3.42;;
42742;SDS011;28397;44.552;-0.848;2023-07-09T01:21:41;10.98;;;3.50;;
42742;SDS011;28397;44.552;-0.848;2023-07-09T01:24:16;11.05;;;4.07;;
42742;SDS011;28397;44.552;-0.848;2023-07-09T01:27:14;9.07;;;3.50;;
42742;SDS011;28397;44.552;-0.848;2023-07-09T01:29:40;8.57;;;3.88;;
42742;SDS011;28397;44.552;-0.848;2023-07-09T01:32:08;9.70;;;3.47;;
42742;SDS011;28397;44.552;-0.848;2023-07-09T01:34:35;5.80;;;2.67;;
42742;SDS011;28397;44.552;-0.848;2023-07-09T01:37:00;9.82;;;2.92;;
42742;SDS011;28397;44.552;-0.848;2023-07-09T01:39:27;9.88;;;2.97;;
42742;SDS011;28397;44.552;-0.848;2023-07-09T01:41:53;8.57;;;2.83;;
42742;SDS011;28397;44.552;-0.848;2023-07-09T01:44:20;7.65;;;2.65;;
42742;SDS011;28397;44.552;-0.848;2023-07-09T01:46:45;8.32;;;2.88;;
42742;SDS011;28397;44.552;-0.848;2023-07-09T01:49:11;9.75;;;2.97;;
42742;SDS011;28397;44.552;-0.848;2023-07-09T01:51:37;9.43;;;2.97;;
42742;SDS011;28397;44.552;-0.848;2023-07-09T01:54:04;8.50;;;2.97;;
42742;SDS011;28397;44.552;-0.848;2023-07-09T01:56:30;7.00;;;2.80;;
42742;SDS011;28397;44.552;-0.848;2023-07-09T01:58:55;8.23;;;2.80;;
42742;SDS011;28397;44.552;-0.848;2023-07-09T02:01:28;9.63;;;2.88;;
42742;SDS011;28397;44.552;-0.848;2023-07-09T02:03:54;8.35;;;3.00;;
42742;SDS011;28397;44.552;-0.848;2023-07-09T02:06:20;7.90;;;3.15;;
42742;SDS011;28397;44.552;-0.848;2023-07-09T02:08:50;8.00;;;2.80;;
42742;SDS011;28397;44.552;-0.848;2023-07-09T02:11:15;9.88;;;2.83;;
42742;SDS011;28397;44.552;-0.848;2023-07-09T02:13:41;11.30;;;3.00;;
42742;SDS011;28397;44.552;-0.848;2023-07-09T02:16:07;9.85;;;3.10;;
42742;SDS011;28397;44.552;-0.848;2023-07-09T02:18:33;8.90;;;3.25;;
42742;SDS011;28397;44.552;-0.848;2023-07-09T02:20:59;16.17;;;4.60;;
42742;SDS011;28397;44.552;-0.848;2023-07-09T02:23:26;19.45;;;4.93;;
42742;SDS011;28397;44.552;-0.848;2023-07-09T02:25:52;23.17;;;4.72;;
42742;SDS011;28397;44.552;-0.848;2023-07-09T02:28:18;25.00;;;5.30;;
42742;SDS011;28397;44.552;-0.848;2023-07-09T02:30:44;21.77;;;4.80;;
42742;SDS011;28397;44.552;-0.848;2023-07-09T02:33:10;21.92;;;4.78;;
42742;SDS011;28397;44.552;-0.848;2023-07-09T02:35:36;19.30;;;4.65;;
42742;SDS011;28397;44.552;-0.848;2023-07-09T02:38:02;13.98;;;3.88;;
42742;SDS011;28397;44.552;-0.848;2023-07-09T02:40:29;11.68;;;3.58;;
42742;SDS011;28397;44.552;-0.848;2023-07-09T02:42:55;10.70;;;3.10;;
42742;SDS011;28397;44.552;-0.848;2023-07-09T02:45:20;11.60;;;3.45;;
42742;SDS011;28397;44.552;-0.848;2023-07-09T02:47:46;10.57;;;3.60;;
42742;SDS011;28397;44.552;-0.848;2023-07-09T02:50:12;10.25;;;3.00;;
42742;SDS011;28397;44.552;-0.848;2023-07-09T02:52:39;10.73;;;3.00;;
42742;SDS011;28397;44.552;-0.848;2023-07-09T02:55:05;9.75;;;3.10;;
42742;SDS011;28397;44.552;-0.848;2023-07-09T02:57:31;8.50;;;2.80;;
42742;SDS011;28397;44.552;-0.848;2023-07-09T02:59:56;6.65;;;2.92;;
42742;SDS011;28397;44.552;-0.848;2023-07-09T03:02:22;8.27;;;2.90;;
42742;SDS011;28397;44.552;-0.848;2023-07-09T03:04:48;8.25;;;2.53;;
42742;SDS011;28397;44.552;-0.848;2023-07-09T03:07:13;8.52;;;2.65;;
42742;SDS011;28397;44.552;-0.848;2023-07-09T03:09:39;8.20;;;3.03;;
42742;SDS011;28397;44.552;-0.848;2023-07-09T03:12:05;8.63;;;3.08;;
42742;SDS011;28397;44.552;-0.848;2023-07-09T03:14:32;8.13;;;2.90;;
42742;SDS011;28397;44.552;-0.848;2023-07-09T03:16:58;8.48;;;3.03;;
42742;SDS011;28397;44.552;-0.848;2023-07-09T03:19:23;8.18;;;3.05;;
42742;SDS011;28397;44.552;-0.848;2023-07-09T03:21:49;7.47;;;3.00;;
42742;SDS011;28397;44.552;-0.848;2023-07-09T03:24:15;7.47;;;2.83;;
42742;SDS011;28397;44.552;-0.848;2023-07-09T03:26:43;6.85;;;2.50;;
42742;SDS011;28397;44.552;-0.848;2023-07-09T03:29:10;7.10;;;2.60;;
42742;SDS011;28397;44.552;-0.848;2023-07-09T03:31:36;6.63;;;2.35;;
42742;SDS011;28397;44.552;-0.848;2023-07-09T03:34:01;6.07;;;2.42;;
42742;SDS011;28397;44.552;-0.848;2023-07-09T03:36:27;5.22;;;2.40;;
42742;SDS011;28397;44.552;-0.848;2023-07-09T03:38:53;6.38;;;2.63;;
42742;SDS011;28397;44.552;-0.848;2023-07-09T03:41:19;6.30;;;2.60;;
42742;SDS011;28397;44.552;-0.848;2023-07-09T03:43:45;5.50;;;2.63;;
42742;SDS011;28397;44.552;-0.848;2023-07-09T03:46:11;6.47;;;2.50;;
42742;SDS011;28397;44.552;-0.848;2023-07-09T03:48:37;6.75;;;2.58;;
42742;SDS011;28397;44.552;-0.848;2023-07-09T03:51:03;5.05;;;2.33;;
42742;SDS011;28397;44.552;-0.848;2023-07-09T03:53:29;7.78;;;2.65;;
42742;SDS011;28397;44.552;-0.848;2023-07-09T03:55:55;7.72;;;2.97;;
42742;SDS011;28397;44.552;-0.848;2023-07-09T03:58:21;7.00;;;2.70;;
42742;SDS011;28397;44.552;-0.848;2023-07-09T04:00:49;6.88;;;2.65;;
42742;SDS011;28397;44.552;-0.848;2023-07-09T04:03:15;7.53;;;3.35;;
42742;SDS011;28397;44.552;-0.848;2023-07-09T04:05:40;7.32;;;3.30;;
42742;SDS011;28397;44.552;-0.848;2023-07-09T04:08:06;7.05;;;3.05;;
42742;SDS011;28397;44.552;-0.848;2023-07-09T04:10:31;7.07;;;3.20;;
42742;SDS011;28397;44.552;-0.848;2023-07-09T04:12:57;6.13;;;2.45;;
42742;SDS011;28397;44.552;-0.848;2023-07-09T04:15:23;8.20;;;2.92;;
42742;SDS011;28397;44.552;-0.848;2023-07-09T04:17:49;8.13;;;2.90;;
42742;SDS011;28397;44.552;-0.848;2023-07-09T04:20:15;7.25;;;2.92;;
42742;SDS011;28397;44.552;-0.848;2023-07-09T04:22:41;6.68;;;2.85;;
42742;SDS011;28397;44.552;-0.848;2023-07-09T04:25:07;5.68;;;2.67;;
42742;SDS011;28397;44.552;-0.848;2023-07-09T04:27:36;5.72;;;2.60;;
42742;SDS011;28397;44.552;-0.848;2023-07-09T04:30:02;5.90;;;2.63;;
42742;SDS011;28397;44.552;-0.848;2023-07-09T04:32:30;7.07;;;2.83;;
42742;SDS011;28397;44.552;-0.848;2023-07-09T04:34:55;6.20;;;2.60;;
42742;SDS011;28397;44.552;-0.848;2023-07-09T04:37:21;7.50;;;2.88;;
42742;SDS011;28397;44.552;-0.848;2023-07-09T04:39:47;5.70;;;2.55;;
42742;SDS011;28397;44.552;-0.848;2023-07-09T04:42:13;5.72;;;2.20;;
42742;SDS011;28397;44.552;-0.848;2023-07-09T04:44:41;5.60;;;2.55;;
42742;SDS011;28397;44.552;-0.848;2023-07-09T04:47:07;4.97;;;2.58;;
42742;SDS011;28397;44.552;-0.848;2023-07-09T04:49:33;7.07;;;2.70;;
42742;SDS011;28397;44.552;-0.848;2023-07-09T04:51:59;6.10;;;3.05;;
42742;SDS011;28397;44.552;-0.848;2023-07-09T04:54:26;8.10;;;3.33;;
42742;SDS011;28397;44.552;-0.848;2023-07-09T04:56:52;9.43;;;3.08;;
42742;SDS011;28397;44.552;-0.848;2023-07-09T04:59:18;17.33;;;4.35;;
42742;SDS011;28397;44.552;-0.848;2023-07-09T05:01:44;20.50;;;4.78;;
42742;SDS011;28397;44.552;-0.848;2023-07-09T05:04:10;14.52;;;4.38;;
42742;SDS011;28397;44.552;-0.848;2023-07-09T05:06:36;17.38;;;4.70;;
42742;SDS011;28397;44.552;-0.848;2023-07-09T05:09:02;16.88;;;4.65;;
42742;SDS011;28397;44.552;-0.848;2023-07-09T05:11:27;13.13;;;4.20;;
42742;SDS011;28397;44.552;-0.848;2023-07-09T05:13:53;11.32;;;3.60;;
42742;SDS011;28397;44.552;-0.848;2023-07-09T05:16:19;18.90;;;5.32;;
42742;SDS011;28397;44.552;-0.848;2023-07-09T05:18:45;23.80;;;6.03;;
42742;SDS011;28397;44.552;-0.848;2023-07-09T05:21:11;32.85;;;7.95;;
42742;SDS011;28397;44.552;-0.848;2023-07-09T05:23:37;25.35;;;6.85;;
42742;SDS011;28397;44.552;-0.848;2023-07-09T05:26:03;26.42;;;6.32;;
42742;SDS011;28397;44.552;-0.848;2023-07-09T05:28:29;23.02;;;6.03;;
42742;SDS011;28397;44.552;-0.848;2023-07-09T05:30:57;25.92;;;6.72;;
42742;SDS011;28397;44.552;-0.848;2023-07-09T05:33:23;32.92;;;6.57;;
42742;SDS011;28397;44.552;-0.848;2023-07-09T05:35:49;21.98;;;6.38;;
42742;SDS011;28397;44.552;-0.848;2023-07-09T05:38:15;25.63;;;5.40;;
42742;SDS011;28397;44.552;-0.848;2023-07-09T05:40:41;22.60;;;5.13;;
42742;SDS011;28397;44.552;-0.848;2023-07-09T05:43:07;17.35;;;5.03;;
42742;SDS011;28397;44.552;-0.848;2023-07-09T05:45:33;17.23;;;5.13;;
42742;SDS011;28397;44.552;-0.848;2023-07-09T05:47:59;22.10;;;5.05;;
42742;SDS011;28397;44.552;-0.848;2023-07-09T05:50:25;15.65;;;4.47;;
42742;SDS011;28397;44.552;-0.848;2023-07-09T05:52:51;16.67;;;4.95;;
42742;SDS011;28397;44.552;-0.848;2023-07-09T05:55:17;16.02;;;4.70;;
42742;SDS011;28397;44.552;-0.848;2023-07-09T05:57:43;16.25;;;4.53;;
42742;SDS011;28397;44.552;-0.848;2023-07-09T06:00:08;15.05;;;4.68;;
42742;SDS011;28397;44.552;-0.848;2023-07-09T06:02:35;14.98;;;4.45;;
42742;SDS011;28397;44.552;-0.848;2023-07-09T06:05:01;14.07;;;4.45;;
42742;SDS011;28397;44.552;-0.848;2023-07-09T06:07:27;17.67;;;4.88;;
42742;SDS011;28397;44.552;-0.848;2023-07-09T06:09:53;13.40;;;4.50;;
42742;SDS011;28397;44.552;-0.848;2023-07-09T06:12:18;14.60;;;4.55;;
42742;SDS011;28397;44.552;-0.848;2023-07-09T06:14:45;19.08;;;4.57;;
42742;SDS011;28397;44.552;-0.848;2023-07-09T06:17:11;17.05;;;4.78;;
42742;SDS011;28397;44.552;-0.848;2023-07-09T06:19:37;18.88;;;4.70;;
42742;SDS011;28397;44.552;-0.848;2023-07-09T06:22:04;15.20;;;4.78;;
42742;SDS011;28397;44.552;-0.848;2023-07-09T06:24:29;14.98;;;4.70;;
42742;SDS011;28397;44.552;-0.848;2023-07-09T06:26:55;15.00;;;3.97;;
42742;SDS011;28397;44.552;-0.848;2023-07-09T06:29:21;15.20;;;4.60;;
42742;SDS011;28397;44.552;-0.848;2023-07-09T06:31:46;15.27;;;4.32;;
42742;SDS011;28397;44.552;-0.848;2023-07-09T06:34:12;10.52;;;3.88;;
42742;SDS011;28397;44.552;-0.848;2023-07-09T06:36:38;13.32;;;4.45;;
42742;SDS011;28397;44.552;-0.848;2023-07-09T06:39:04;13.02;;;3.88;;
42742;SDS011;28397;44.552;-0.848;2023-07-09T06:41:30;12.07;;;3.70;;
42742;SDS011;28397;44.552;-0.848;2023-07-09T06:43:57;9.40;;;3.50;;
42742;SDS011;28397;44.552;-0.848;2023-07-09T06:46:23;10.32;;;3.42;;
42742;SDS011;28397;44.552;-0.848;2023-07-09T06:48:49;11.15;;;3.63;;
42742;SDS011;28397;44.552;-0.848;2023-07-09T06:51:14;11.30;;;3.67;;
42742;SDS011;28397;44.552;-0.848;2023-07-09T06:53:40;9.88;;;3.42;;
42742;SDS011;28397;44.552;-0.848;2023-07-09T06:56:07;9.30;;;3.78;;
42742;SDS011;28397;44.552;-0.848;2023-07-09T06:58:36;11.57;;;3.55;;
42742;SDS011;28397;44.552;-0.848;2023-07-09T07:01:02;9.95;;;3.42;;
42742;SDS011;28397;44.552;-0.848;2023-07-09T07:03:29;11.05;;;3.30;;
42742;SDS011;28397;44.552;-0.848;2023-07-09T07:05:57;10.13;;;3.72;;
42742;SDS011;28397;44.552;-0.848;2023-07-09T07:08:23;11.18;;;3.53;;
42742;SDS011;28397;44.552;-0.848;2023-07-09T07:10:54;9.88;;;3.00;;
42742;SDS011;28397;44.552;-0.848;2023-07-09T07:13:37;11.52;;;3.67;;
42742;SDS011;28397;44.552;-0.848;2023-07-09T07:16:05;13.65;;;3.85;;
42742;SDS011;28397;44.552;-0.848;2023-07-09T07:18:35;10.18;;;3.58;;
42742;SDS011;28397;44.552;-0.848;2023-07-09T07:21:01;10.60;;;3.50;;
42742;SDS011;28397;44.552;-0.848;2023-07-09T07:23:27;11.48;;;3.65;;
42742;SDS011;28397;44.552;-0.848;2023-07-09T07:25:53;9.73;;;3.22;;
42742;SDS011;28397;44.552;-0.848;2023-07-09T07:28:19;11.35;;;3.75;;
42742;SDS011;28397;44.552;-0.848;2023-07-09T07:30:46;11.50;;;3.67;;
42742;SDS011;28397;44.552;-0.848;2023-07-09T07:33:13;11.95;;;3.70;;
42742;SDS011;28397;44.552;-0.848;2023-07-09T07:35:41;12.32;;;3.53;;
42742;SDS011;28397;44.552;-0.848;2023-07-09T07:38:06;13.98;;;3.60;;
42742;SDS011;28397;44.552;-0.848;2023-07-09T07:40:32;13.95;;;3.75;;
42742;SDS011;28397;44.552;-0.848;2023-07-09T07:42:57;14.27;;;3.92;;
42742;SDS011;28397;44.552;-0.848;2023-07-09T07:45:23;8.40;;;3.67;;
42742;SDS011;28397;44.552;-0.848;2023-07-09T07:47:49;12.70;;;3.92;;
42742;SDS011;28397;44.552;-0.848;2023-07-09T07:50:19;10.73;;;3.45;;
42742;SDS011;28397;44.552;-0.848;2023-07-09T07:52:45;12.18;;;3.70;;
42742;SDS011;28397;44.552;-0.848;2023-07-09T07:55:10;9.82;;;3.80;;
42742;SDS011;28397;44.552;-0.848;2023-07-09T07:57:36;11.90;;;3.65;;
42742;SDS011;28397;44.552;-0.848;2023-07-09T08:00:02;12.30;;;3.50;;
42742;SDS011;28397;44.552;-0.848;2023-07-09T08:02:28;10.70;;;3.67;;
42742;SDS011;28397;44.552;-0.848;2023-07-09T08:04:54;12.68;;;3.80;;
42742;SDS011;28397;44.552;-0.848;2023-07-09T08:07:19;12.38;;;3.67;;
42742;SDS011;28397;44.552;-0.848;2023-07-09T08:09:46;11.23;;;3.58;;
42742;SDS011;28397;44.552;-0.848;2023-07-09T08:12:12;11.13;;;3.72;;
42742;SDS011;28397;44.552;-0.848;2023-07-09T08:14:39;9.13;;;3.70;;
42742;SDS011;28397;44.552;-0.848;2023-07-09T08:17:06;8.88;;;3.38;;
42742;SDS011;28397;44.552;-0.848;2023-07-09T08:19:43;8.68;;;3.13;;
42742;SDS011;28397;44.552;-0.848;2023-07-09T08:22:10;11.45;;;3.55;;
42742;SDS011;28397;44.552;-0.848;2023-07-09T08:24:36;8.40;;;3.35;;
42742;SDS011;28397;44.552;-0.848;2023-07-09T08:27:02;9.10;;;3.65;;
42742;SDS011;28397;44.552;-0.848;2023-07-09T08:29:28;9.10;;;3.28;;
42742;SDS011;28397;44.552;-0.848;2023-07-09T08:31:54;10.90;;;4.03;;
42742;SDS011;28397;44.552;-0.848;2023-07-09T08:34:19;10.30;;;3.80;;
42742;SDS011;28397;44.552;-0.848;2023-07-09T08:36:45;13.88;;;4.22;;
42742;SDS011;28397;44.552;-0.848;2023-07-09T08:39:11;11.98;;;3.90;;
42742;SDS011;28397;44.552;-0.848;2023-07-09T08:41:39;11.50;;;3.97;;
42742;SDS011;28397;44.552;-0.848;2023-07-09T08:49:22;9.52;;;3.53;;
42742;SDS011;28397;44.552;-0.848;2023-07-09T08:51:55;10.60;;;3.70;;
42742;SDS011;28397;44.552;-0.848;2023-07-09T08:54:30;11.65;;;4.00;;
42742;SDS011;28397;44.552;-0.848;2023-07-09T08:56:59;13.50;;;4.00;;
42742;SDS011;28397;44.552;-0.848;2023-07-09T08:59:39;12.85;;;3.90;;
42742;SDS011;28397;44.552;-0.848;2023-07-09T09:02:06;10.43;;;3.72;;
42742;SDS011;28397;44.552;-0.848;2023-07-09T09:04:47;10.60;;;3.92;;
42742;SDS011;28397;44.552;-0.848;2023-07-09T09:07:19;12.20;;;3.92;;
42742;SDS011;28397;44.552;-0.848;2023-07-09T09:09:57;13.35;;;3.83;;
42742;SDS011;28397;44.552;-0.848;2023-07-09T09:12:30;10.07;;;3.25;;
42742;SDS011;28397;44.552;-0.848;2023-07-09T09:15:04;11.73;;;3.33;;
42742;SDS011;28397;44.552;-0.848;2023-07-09T09:17:39;12.38;;;3.95;;
42742;SDS011;28397;44.552;-0.848;2023-07-09T09:20:15;9.32;;;3.60;;
42742;SDS011;28397;44.552;-0.848;2023-07-09T09:25:31;10.35;;;3.90;;
42742;SDS011;28397;44.552;-0.848;2023-07-09T09:28:01;7.55;;;3.00;;
42742;SDS011;28397;44.552;-0.848;2023-07-09T09:30:27;10.40;;;3.40;;
42742;SDS011;28397;44.552;-0.848;2023-07-09T09:32:55;10.10;;;3.25;;
42742;SDS011;28397;44.552;-0.848;2023-07-09T09:35:44;8.02;;;3.53;;
42742;SDS011;28397;44.552;-0.848;2023-07-09T09:38:17;9.18;;;3.60;;
42742;SDS011;28397;44.552;-0.848;2023-07-09T09:40:47;8.20;;;3.08;;
42742;SDS011;28397;44.552;-0.848;2023-07-09T09:43:17;9.00;;;3.20;;
42742;SDS011;28397;44.552;-0.848;2023-07-09T09:45:47;9.65;;;3.33;;
42742;SDS011;28397;44.552;-0.848;2023-07-09T09:50:40;7.55;;;2.95;;
42742;SDS011;28397;44.552;-0.848;2023-07-09T09:53:07;9.27;;;2.92;;
42742;SDS011;28397;44.552;-0.848;2023-07-09T09:55:34;9.57;;;2.90;;
42742;SDS011;28397;44.552;-0.848;2023-07-09T09:58:00;7.65;;;2.38;;
42742;SDS011;28397;44.552;-0.848;2023-07-09T10:00:29;7.75;;;2.30;;
42742;SDS011;28397;44.552;-0.848;2023-07-09T10:02:59;7.85;;;2.60;;
42742;SDS011;28397;44.552;-0.848;2023-07-09T10:08:00;8.07;;;2.40;;
42742;SDS011;28397;44.552;-0.848;2023-07-09T10:10:33;7.18;;;2.38;;
42742;SDS011;28397;44.552;-0.848;2023-07-09T10:13:01;7.35;;;2.72;;
42742;SDS011;28397;44.552;-0.848;2023-07-09T10:18:22;5.35;;;2.28;;
42742;SDS011;28397;44.552;-0.848;2023-07-09T10:21:12;7.70;;;2.78;;
42742;SDS011;28397;44.552;-0.848;2023-07-09T10:23:51;5.43;;;2.00;;
42742;SDS011;28397;44.552;-0.848;2023-07-09T10:26:46;9.55;;;2.30;;
42742;SDS011;28397;44.552;-0.848;2023-07-09T10:40:59;5.50;;;2.10;;
42742;SDS011;28397;44.552;-0.848;2023-07-09T10:43:33;7.80;;;2.40;;
42742;SDS011;28397;44.552;-0.848;2023-07-09T10:46:09;4.95;;;2.20;;
42742;SDS011;28397;44.552;-0.848;2023-07-09T10:48:44;6.00;;;2.53;;
42742;SDS011;28397;44.552;-0.848;2023-07-09T10:56:45;8.00;;;2.55;;
42742;SDS011;28397;44.552;-0.848;2023-07-09T11:04:52;6.82;;;2.33;;
42742;SDS011;28397;44.552;-0.848;2023-07-09T11:07:33;7.40;;;2.53;;
42742;SDS011;28397;44.552;-0.848;2023-07-09T11:12:55;7.43;;;2.40;;
42742;SDS011;28397;44.552;-0.848;2023-07-09T11:15:28;7.93;;;2.53;;
42742;SDS011;28397;44.552;-0.848;2023-07-09T11:17:58;6.93;;;2.35;;
42742;SDS011;28397;44.552;-0.848;2023-07-09T11:20:25;5.45;;;2.25;;
42742;SDS011;28397;44.552;-0.848;2023-07-09T11:23:07;6.45;;;2.70;;
42742;SDS011;28397;44.552;-0.848;2023-07-09T11:26:08;6.45;;;2.17;;
42742;SDS011;28397;44.552;-0.848;2023-07-09T11:28:39;6.40;;;2.17;;
42742;SDS011;28397;44.552;-0.848;2023-07-09T11:31:06;6.85;;;2.25;;
42742;SDS011;28397;44.552;-0.848;2023-07-09T11:33:34;5.72;;;2.22;;
42742;SDS011;28397;44.552;-0.848;2023-07-09T11:36:10;5.55;;;2.03;;
42742;SDS011;28397;44.552;-0.848;2023-07-09T11:38:45;6.32;;;2.05;;
42742;SDS011;28397;44.552;-0.848;2023-07-09T11:44:04;6.45;;;2.20;;
42742;SDS011;28397;44.552;-0.848;2023-07-09T11:49:24;5.90;;;2.10;;
42742;SDS011;28397;44.552;-0.848;2023-07-09T11:51:54;4.88;;;2.28;;
42742;SDS011;28397;44.552;-0.848;2023-07-09T11:54:24;6.38;;;2.05;;
42742;SDS011;28397;44.552;-0.848;2023-07-09T11:56:56;5.97;;;2.15;;
42742;SDS011;28397;44.552;-0.848;2023-07-09T11:59:23;6.22;;;2.88;;
42742;SDS011;28397;44.552;-0.848;2023-07-09T12:01:50;5.25;;;2.13;;
42742;SDS011;28397;44.552;-0.848;2023-07-09T12:04:19;4.80;;;1.90;;
42742;SDS011;28397;44.552;-0.848;2023-07-09T12:06:51;4.65;;;2.30;;
42742;SDS011;28397;44.552;-0.848;2023-07-09T12:09:22;8.25;;;2.90;;
42742;SDS011;28397;44.552;-0.848;2023-07-09T12:11:48;4.72;;;2.30;;
42742;SDS011;28397;44.552;-0.848;2023-07-09T12:14:16;6.35;;;2.45;;
42742;SDS011;28397;44.552;-0.848;2023-07-09T12:16:50;4.05;;;1.70;;
42742;SDS011;28397;44.552;-0.848;2023-07-09T12:19:21;4.50;;;1.95;;
42742;SDS011;28397;44.552;-0.848;2023-07-09T12:21:51;3.17;;;1.50;;
42742;SDS011;28397;44.552;-0.848;2023-07-09T12:24:20;4.82;;;1.52;;
42742;SDS011;28397;44.552;-0.848;2023-07-09T12:26:48;6.45;;;1.80;;
42742;SDS011;28397;44.552;-0.848;2023-07-09T12:29:26;4.60;;;2.00;;
42742;SDS011;28397;44.552;-0.848;2023-07-09T12:31:57;4.05;;;1.50;;
42742;SDS011;28397;44.552;-0.848;2023-07-09T12:34:24;4.13;;;1.95;;
42742;SDS011;28397;44.552;-0.848;2023-07-09T12:36:51;3.92;;;1.70;;
42742;SDS011;28397;44.552;-0.848;2023-07-09T12:39:22;6.20;;;1.80;;
42742;SDS011;28397;44.552;-0.848;2023-07-09T12:41:50;4.50;;;1.80;;
42742;SDS011;28397;44.552;-0.848;2023-07-09T12:44:21;4.28;;;1.90;;
42742;SDS011;28397;44.552;-0.848;2023-07-09T12:46:49;5.13;;;1.75;;
42742;SDS011;28397;44.552;-0.848;2023-07-09T12:49:27;4.97;;;1.67;;
42742;SDS011;28397;44.552;-0.848;2023-07-09T12:51:58;4.28;;;1.70;;
42742;SDS011;28397;44.552;-0.848;2023-07-09T12:54:28;3.57;;;1.50;;
42742;SDS011;28397;44.552;-0.848;2023-07-09T12:56:55;4.13;;;1.77;;
42742;SDS011;28397;44.552;-0.848;2023-07-09T12:59:27;6.45;;;2.00;;
42742;SDS011;28397;44.552;-0.848;2023-07-09T13:04:33;5.38;;;1.70;;
42742;SDS011;28397;44.552;-0.848;2023-07-09T13:07:01;2.97;;;1.40;;
42742;SDS011;28397;44.552;-0.848;2023-07-09T13:09:27;4.28;;;1.88;;
42742;SDS011;28397;44.552;-0.848;2023-07-09T13:11:54;5.07;;;2.00;;
42742;SDS011;28397;44.552;-0.848;2023-07-09T13:14:22;6.20;;;1.98;;
42742;SDS011;28397;44.552;-0.848;2023-07-09T13:16:51;4.32;;;1.80;;
42742;SDS011;28397;44.552;-0.848;2023-07-09T13:19:18;4.15;;;1.77;;
42742;SDS011;28397;44.552;-0.848;2023-07-09T13:21:44;4.28;;;1.83;;
42742;SDS011;28397;44.552;-0.848;2023-07-09T13:24:29;3.80;;;1.90;;
42742;SDS011;28397;44.552;-0.848;2023-07-09T13:26:55;4.70;;;1.88;;
42742;SDS011;28397;44.552;-0.848;2023-07-09T13:29:24;5.93;;;2.00;;
42742;SDS011;28397;44.552;-0.848;2023-07-09T13:31:51;6.47;;;2.22;;
42742;SDS011;28397;44.552;-0.848;2023-07-09T13:34:22;4.85;;;2.25;;
42742;SDS011;28397;44.552;-0.848;2023-07-09T13:36:49;8.52;;;2.40;;
42742;SDS011;28397;44.552;-0.848;2023-07-09T13:39:16;5.18;;;1.90;;
42742;SDS011;28397;44.552;-0.848;2023-07-09T13:41:43;5.38;;;1.77;;
42742;SDS011;28397;44.552;-0.848;2023-07-09T13:44:21;4.85;;;2.00;;
42742;SDS011;28397;44.552;-0.848;2023-07-09T13:46:52;4.07;;;1.73;;
42742;SDS011;28397;44.552;-0.848;2023-07-09T13:49:20;6.25;;;2.20;;
42742;SDS011;28397;44.552;-0.848;2023-07-09T13:51:47;3.85;;;1.70;;
42742;SDS011;28397;44.552;-0.848;2023-07-09T13:54:17;3.47;;;1.70;;
42742;SDS011;28397;44.552;-0.848;2023-07-09T13:56:45;3.80;;;1.80;;
42742;SDS011;28397;44.552;-0.848;2023-07-09T13:59:16;4.57;;;1.73;;
42742;SDS011;28397;44.552;-0.848;2023-07-09T14:01:44;4.82;;;2.08;;
42742;SDS011;28397;44.552;-0.848;2023-07-09T14:04:11;4.68;;;1.70;;
42742;SDS011;28397;44.552;-0.848;2023-07-09T14:06:38;5.60;;;1.88;;
42742;SDS011;28397;44.552;-0.848;2023-07-09T14:09:05;5.60;;;2.08;;
42742;SDS011;28397;44.552;-0.848;2023-07-09T14:11:31;6.50;;;1.98;;
42742;SDS011;28397;44.552;-0.848;2023-07-09T14:13:57;5.47;;;1.88;;
42742;SDS011;28397;44.552;-0.848;2023-07-09T14:16:23;3.17;;;1.75;;
42742;SDS011;28397;44.552;-0.848;2023-07-09T14:18:49;5.50;;;1.90;;
42742;SDS011;28397;44.552;-0.848;2023-07-09T14:21:20;3.58;;;1.58;;
42742;SDS011;28397;44.552;-0.848;2023-07-09T14:23:51;5.28;;;2.10;;
42742;SDS011;28397;44.552;-0.848;2023-07-09T14:26:18;5.00;;;1.75;;
42742;SDS011;28397;44.552;-0.848;2023-07-09T14:28:43;5.18;;;1.92;;
42742;SDS011;28397;44.552;-0.848;2023-07-09T14:31:30;5.32;;;2.10;;
42742;SDS011;28397;44.552;-0.848;2023-07-09T14:33:59;5.40;;;2.00;;
42742;SDS011;28397;44.552;-0.848;2023-07-09T14:36:43;6.60;;;1.90;;
42742;SDS011;28397;44.552;-0.848;2023-07-09T14:39:09;4.20;;;1.80;;
42742;SDS011;28397;44.552;-0.848;2023-07-09T14:41:35;7.30;;;2.33;;
42742;SDS011;28397;44.552;-0.848;2023-07-09T14:44:01;5.68;;;1.88;;
42742;SDS011;28397;44.552;-0.848;2023-07-09T14:46:27;3.63;;;1.63;;
42742;SDS011;28397;44.552;-0.848;2023-07-09T14:48:53;3.42;;;1.70;;
42742;SDS011;28397;44.552;-0.848;2023-07-09T14:51:18;3.47;;;1.65;;
42742;SDS011;28397;44.552;-0.848;2023-07-09T14:53:45;4.82;;;1.80;;
42742;SDS011;28397;44.552;-0.848;2023-07-09T14:56:12;4.22;;;1.90;;
42742;SDS011;28397;44.552;-0.848;2023-07-09T14:58:38;5.90;;;2.03;;
42742;SDS011;28397;44.552;-0.848;2023-07-09T15:01:04;5.93;;;1.98;;
42742;SDS011;28397;44.552;-0.848;2023-07-09T15:03:30;4.47;;;2.20;;
42742;SDS011;28397;44.552;-0.848;2023-07-09T15:05:56;3.95;;;1.85;;
42742;SDS011;28397;44.552;-0.848;2023-07-09T15:08:22;3.72;;;1.73;;
42742;SDS011;28397;44.552;-0.848;2023-07-09T15:10:50;5.82;;;1.80;;
42742;SDS011;28397;44.552;-0.848;2023-07-09T15:13:25;4.97;;;1.83;;
42742;SDS011;28397;44.552;-0.848;2023-07-09T15:15:51;5.13;;;1.77;;
42742;SDS011;28397;44.552;-0.848;2023-07-09T15:18:17;4.47;;;1.90;;
42742;SDS011;28397;44.552;-0.848;2023-07-09T15:20:46;4.25;;;1.50;;
42742;SDS011;28397;44.552;-0.848;2023-07-09T15:23:15;4.17;;;1.90;;
42742;SDS011;28397;44.552;-0.848;2023-07-09T15:25:41;3.30;;;1.80;;
42742;SDS011;28397;44.552;-0.848;2023-07-09T15:28:09;4.55;;;1.92;;
42742;SDS011;28397;44.552;-0.848;2023-07-09T15:30:35;4.03;;;1.75;;
42742;SDS011;28397;44.552;-0.848;2023-07-09T15:33:02;5.28;;;2.30;;